Alma, West Virginia
Current Conditions -  °F | °C
As of 4:53 AM on Saturday 01 Nov 2014 (Local Time) from KPKB Reporting Station
Light Rain Light Rain  
Wind Chill: 39°   Ceiling: 3600
Heat Index: 42°   Visibility: 7mi
Dew Point: 40°   Wind: 5mph
Humidity: 92%   Direction: 340°NNW
Pressure: 29.92"   Gusts: NA
Location:  39.43°N, 80.84°W
Report Text: KPKB 010853Z AUTO 34004KT 7SM -RA FEW007 SCT028 OVC036 06/04 A2992 RMK AO2 SLP133 P0001 60006 T00560044 53005
Loading
Personal Weather Stations






























Interactive Weather Map
Tropical Storm Tracking
New forecast layout! Learn more

10-Day Weather Forecast

Advertisements
Track Severe Weather on mobile